sensor_id;sensor_type;location;lat;lon;timestamp;P1;durP1;ratioP1;P2;durP2;ratioP2
41568;SDS011;27283;52.504;13.358;2022-12-24T00:02:02;31.45;;;13.10;;
41568;SDS011;27283;52.504;13.358;2022-12-24T00:04:37;31.60;;;14.25;;
41568;SDS011;27283;52.504;13.358;2022-12-24T00:07:09;33.75;;;13.77;;
41568;SDS011;27283;52.504;13.358;2022-12-24T00:09:42;33.47;;;14.30;;
41568;SDS011;27283;52.504;13.358;2022-12-24T00:12:14;34.50;;;13.88;;
41568;SDS011;27283;52.504;13.358;2022-12-24T00:14:49;28.45;;;12.38;;
41568;SDS011;27283;52.504;13.358;2022-12-24T00:17:21;30.95;;;13.73;;
41568;SDS011;27283;52.504;13.358;2022-12-24T00:19:56;34.85;;;13.38;;
41568;SDS011;27283;52.504;13.358;2022-12-24T00:22:29;31.98;;;12.73;;
41568;SDS011;27283;52.504;13.358;2022-12-24T00:25:01;26.67;;;12.93;;
41568;SDS011;27283;52.504;13.358;2022-12-24T00:27:33;28.10;;;12.75;;
41568;SDS011;27283;52.504;13.358;2022-12-24T00:30:06;28.23;;;12.48;;
41568;SDS011;27283;52.504;13.358;2022-12-24T00:32:40;28.95;;;12.88;;
41568;SDS011;27283;52.504;13.358;2022-12-24T00:35:15;28.52;;;12.20;;
41568;SDS011;27283;52.504;13.358;2022-12-24T00:37:47;27.50;;;11.93;;
41568;SDS011;27283;52.504;13.358;2022-12-24T00:40:20;27.08;;;12.07;;
41568;SDS011;27283;52.504;13.358;2022-12-24T00:42:53;30.45;;;14.07;;
41568;SDS011;27283;52.504;13.358;2022-12-24T00:45:25;35.08;;;13.85;;
41568;SDS011;27283;52.504;13.358;2022-12-24T00:47:58;29.38;;;13.07;;
41568;SDS011;27283;52.504;13.358;2022-12-24T00:50:33;30.92;;;12.13;;
41568;SDS011;27283;52.504;13.358;2022-12-24T00:53:26;32.63;;;13.75;;
41568;SDS011;27283;52.504;13.358;2022-12-24T00:55:58;32.38;;;13.75;;
41568;SDS011;27283;52.504;13.358;2022-12-24T00:58:31;33.88;;;14.73;;
41568;SDS011;27283;52.504;13.358;2022-12-24T01:01:04;31.48;;;13.85;;
41568;SDS011;27283;52.504;13.358;2022-12-24T01:03:37;34.40;;;13.77;;
41568;SDS011;27283;52.504;13.358;2022-12-24T01:06:12;33.53;;;14.15;;
41568;SDS011;27283;52.504;13.358;2022-12-24T01:08:44;32.13;;;13.85;;
41568;SDS011;27283;52.504;13.358;2022-12-24T01:11:16;33.60;;;14.38;;
41568;SDS011;27283;52.504;13.358;2022-12-24T01:13:49;32.05;;;13.43;;
41568;SDS011;27283;52.504;13.358;2022-12-24T01:16:20;29.48;;;12.40;;
41568;SDS011;27283;52.504;13.358;2022-12-24T01:18:53;27.35;;;12.52;;
41568;SDS011;27283;52.504;13.358;2022-12-24T01:21:27;29.85;;;13.38;;
41568;SDS011;27283;52.504;13.358;2022-12-24T01:24:00;29.25;;;13.05;;
41568;SDS011;27283;52.504;13.358;2022-12-24T01:26:32;30.13;;;12.50;;
41568;SDS011;27283;52.504;13.358;2022-12-24T01:29:04;27.65;;;12.43;;
41568;SDS011;27283;52.504;13.358;2022-12-24T01:31:36;29.38;;;13.20;;
41568;SDS011;27283;52.504;13.358;2022-12-24T01:34:08;29.77;;;12.95;;
41568;SDS011;27283;52.504;13.358;2022-12-24T01:36:43;28.27;;;12.13;;
41568;SDS011;27283;52.504;13.358;2022-12-24T01:39:15;29.85;;;12.15;;
41568;SDS011;27283;52.504;13.358;2022-12-24T01:41:47;27.55;;;12.30;;
41568;SDS011;27283;52.504;13.358;2022-12-24T01:44:32;34.08;;;14.00;;
41568;SDS011;27283;52.504;13.358;2022-12-24T01:47:06;29.45;;;13.57;;
41568;SDS011;27283;52.504;13.358;2022-12-24T01:49:42;29.77;;;13.05;;
41568;SDS011;27283;52.504;13.358;2022-12-24T01:52:22;28.73;;;13.80;;
41568;SDS011;27283;52.504;13.358;2022-12-24T01:54:57;31.02;;;12.82;;
41568;SDS011;27283;52.504;13.358;2022-12-24T01:57:33;28.25;;;13.00;;
41568;SDS011;27283;52.504;13.358;2022-12-24T02:00:09;33.90;;;13.80;;
41568;SDS011;27283;52.504;13.358;2022-12-24T02:02:44;32.35;;;14.30;;
41568;SDS011;27283;52.504;13.358;2022-12-24T02:05:20;37.35;;;14.77;;
41568;SDS011;27283;52.504;13.358;2022-12-24T02:07:59;33.95;;;13.48;;
41568;SDS011;27283;52.504;13.358;2022-12-24T02:10:34;31.58;;;13.90;;
41568;SDS011;27283;52.504;13.358;2022-12-24T02:13:06;32.25;;;13.95;;
41568;SDS011;27283;52.504;13.358;2022-12-24T02:15:43;33.88;;;14.48;;
41568;SDS011;27283;52.504;13.358;2022-12-24T02:18:28;31.15;;;13.35;;
41568;SDS011;27283;52.504;13.358;2022-12-24T02:21:22;31.92;;;13.38;;
41568;SDS011;27283;52.504;13.358;2022-12-24T02:27:35;32.75;;;14.60;;
41568;SDS011;27283;52.504;13.358;2022-12-24T02:30:18;36.47;;;15.52;;
41568;SDS011;27283;52.504;13.358;2022-12-24T02:32:58;35.53;;;14.95;;
41568;SDS011;27283;52.504;13.358;2022-12-24T02:35:44;33.85;;;14.55;;
41568;SDS011;27283;52.504;13.358;2022-12-24T02:38:22;37.90;;;15.85;;
41568;SDS011;27283;52.504;13.358;2022-12-24T02:41:00;40.35;;;16.17;;
41568;SDS011;27283;52.504;13.358;2022-12-24T02:43:36;36.25;;;15.40;;
41568;SDS011;27283;52.504;13.358;2022-12-24T02:46:15;40.70;;;16.40;;
41568;SDS011;27283;52.504;13.358;2022-12-24T02:48:51;36.53;;;16.05;;
41568;SDS011;27283;52.504;13.358;2022-12-24T02:51:25;38.40;;;16.20;;
41568;SDS011;27283;52.504;13.358;2022-12-24T02:54:14;37.42;;;15.88;;
41568;SDS011;27283;52.504;13.358;2022-12-24T02:56:50;37.80;;;16.23;;
41568;SDS011;27283;52.504;13.358;2022-12-24T02:59:41;38.67;;;16.20;;
41568;SDS011;27283;52.504;13.358;2022-12-24T03:02:26;40.13;;;16.27;;
41568;SDS011;27283;52.504;13.358;2022-12-24T03:05:17;35.67;;;15.43;;
41568;SDS011;27283;52.504;13.358;2022-12-24T03:07:56;35.55;;;15.63;;
41568;SDS011;27283;52.504;13.358;2022-12-24T03:10:35;35.53;;;14.95;;
41568;SDS011;27283;52.504;13.358;2022-12-24T03:13:13;36.35;;;15.30;;
41568;SDS011;27283;52.504;13.358;2022-12-24T03:15:48;34.17;;;15.05;;
41568;SDS011;27283;52.504;13.358;2022-12-24T03:18:27;33.03;;;14.68;;
41568;SDS011;27283;52.504;13.358;2022-12-24T03:21:02;31.05;;;15.25;;
41568;SDS011;27283;52.504;13.358;2022-12-24T03:23:40;28.35;;;14.43;;
41568;SDS011;27283;52.504;13.358;2022-12-24T03:26:15;30.15;;;14.02;;
41568;SDS011;27283;52.504;13.358;2022-12-24T03:28:50;30.98;;;14.25;;
41568;SDS011;27283;52.504;13.358;2022-12-24T03:31:22;30.77;;;13.60;;
41568;SDS011;27283;52.504;13.358;2022-12-24T03:33:57;31.33;;;14.20;;
41568;SDS011;27283;52.504;13.358;2022-12-24T03:36:29;29.75;;;14.55;;
41568;SDS011;27283;52.504;13.358;2022-12-24T03:39:02;32.10;;;14.48;;
41568;SDS011;27283;52.504;13.358;2022-12-24T03:41:34;28.63;;;13.85;;
41568;SDS011;27283;52.504;13.358;2022-12-24T03:44:07;28.30;;;12.88;;
41568;SDS011;27283;52.504;13.358;2022-12-24T03:46:40;27.20;;;13.77;;
41568;SDS011;27283;52.504;13.358;2022-12-24T03:49:17;28.38;;;14.05;;
41568;SDS011;27283;52.504;13.358;2022-12-24T03:51:50;31.77;;;14.55;;
41568;SDS011;27283;52.504;13.358;2022-12-24T03:54:22;31.45;;;14.30;;
41568;SDS011;27283;52.504;13.358;2022-12-24T03:56:54;32.95;;;13.95;;
41568;SDS011;27283;52.504;13.358;2022-12-24T03:59:26;30.30;;;14.13;;
41568;SDS011;27283;52.504;13.358;2022-12-24T04:01:59;31.05;;;14.15;;
41568;SDS011;27283;52.504;13.358;2022-12-24T04:04:34;29.48;;;13.80;;
41568;SDS011;27283;52.504;13.358;2022-12-24T04:07:09;27.98;;;13.20;;
41568;SDS011;27283;52.504;13.358;2022-12-24T04:09:41;29.58;;;14.15;;
41568;SDS011;27283;52.504;13.358;2022-12-24T04:12:13;29.33;;;13.98;;
41568;SDS011;27283;52.504;13.358;2022-12-24T04:14:45;30.08;;;14.13;;
41568;SDS011;27283;52.504;13.358;2022-12-24T04:17:18;31.23;;;14.07;;
41568;SDS011;27283;52.504;13.358;2022-12-24T04:20:04;28.17;;;13.07;;
41568;SDS011;27283;52.504;13.358;2022-12-24T04:22:37;26.63;;;13.68;;
41568;SDS011;27283;52.504;13.358;2022-12-24T04:25:11;26.88;;;12.82;;
41568;SDS011;27283;52.504;13.358;2022-12-24T04:27:43;27.35;;;13.25;;
41568;SDS011;27283;52.504;13.358;2022-12-24T04:30:15;27.20;;;13.25;;
41568;SDS011;27283;52.504;13.358;2022-12-24T04:32:48;29.52;;;13.52;;
41568;SDS011;27283;52.504;13.358;2022-12-24T04:35:25;29.70;;;13.55;;
41568;SDS011;27283;52.504;13.358;2022-12-24T04:37:57;26.17;;;13.05;;
41568;SDS011;27283;52.504;13.358;2022-12-24T04:40:29;27.42;;;13.18;;
41568;SDS011;27283;52.504;13.358;2022-12-24T04:43:02;25.10;;;12.95;;
41568;SDS011;27283;52.504;13.358;2022-12-24T04:45:34;29.20;;;13.52;;
41568;SDS011;27283;52.504;13.358;2022-12-24T04:48:07;28.80;;;13.93;;
41568;SDS011;27283;52.504;13.358;2022-12-24T04:50:41;24.98;;;12.70;;
41568;SDS011;27283;52.504;13.358;2022-12-24T04:53:14;24.80;;;13.05;;
41568;SDS011;27283;52.504;13.358;2022-12-24T04:55:46;30.38;;;13.75;;
41568;SDS011;27283;52.504;13.358;2022-12-24T04:58:18;26.67;;;12.90;;
41568;SDS011;27283;52.504;13.358;2022-12-24T05:00:50;25.85;;;13.40;;
41568;SDS011;27283;52.504;13.358;2022-12-24T05:03:23;24.05;;;12.52;;
41568;SDS011;27283;52.504;13.358;2022-12-24T05:06:02;27.52;;;13.07;;
41568;SDS011;27283;52.504;13.358;2022-12-24T05:08:36;24.92;;;12.77;;
41568;SDS011;27283;52.504;13.358;2022-12-24T05:11:08;25.65;;;12.80;;
41568;SDS011;27283;52.504;13.358;2022-12-24T05:13:43;28.00;;;13.80;;
41568;SDS011;27283;52.504;13.358;2022-12-24T05:16:16;31.42;;;14.45;;
41568;SDS011;27283;52.504;13.358;2022-12-24T05:18:50;26.25;;;12.43;;
41568;SDS011;27283;52.504;13.358;2022-12-24T05:21:26;27.40;;;13.43;;
41568;SDS011;27283;52.504;13.358;2022-12-24T05:23:58;25.60;;;12.88;;
41568;SDS011;27283;52.504;13.358;2022-12-24T05:26:42;30.92;;;14.18;;
41568;SDS011;27283;52.504;13.358;2022-12-24T05:29:16;28.50;;;13.73;;
41568;SDS011;27283;52.504;13.358;2022-12-24T05:31:53;29.35;;;14.27;;
41568;SDS011;27283;52.504;13.358;2022-12-24T05:34:25;26.52;;;13.50;;
41568;SDS011;27283;52.504;13.358;2022-12-24T05:37:00;28.10;;;14.15;;
41568;SDS011;27283;52.504;13.358;2022-12-24T05:39:32;27.25;;;13.80;;
41568;SDS011;27283;52.504;13.358;2022-12-24T05:42:04;29.88;;;13.90;;
41568;SDS011;27283;52.504;13.358;2022-12-24T05:44:36;30.15;;;13.75;;
41568;SDS011;27283;52.504;13.358;2022-12-24T05:47:08;30.23;;;14.70;;
41568;SDS011;27283;52.504;13.358;2022-12-24T05:49:40;31.88;;;15.23;;
41568;SDS011;27283;52.504;13.358;2022-12-24T05:52:15;30.95;;;15.27;;
41568;SDS011;27283;52.504;13.358;2022-12-24T05:54:47;30.88;;;14.70;;
41568;SDS011;27283;52.504;13.358;2022-12-24T05:57:19;26.92;;;14.23;;
41568;SDS011;27283;52.504;13.358;2022-12-24T05:59:51;31.85;;;15.07;;
41568;SDS011;27283;52.504;13.358;2022-12-24T06:02:22;30.17;;;14.95;;
41568;SDS011;27283;52.504;13.358;2022-12-24T06:04:54;33.20;;;15.57;;
41568;SDS011;27283;52.504;13.358;2022-12-24T06:07:30;34.88;;;16.65;;
41568;SDS011;27283;52.504;13.358;2022-12-24T06:10:03;32.67;;;16.00;;
41568;SDS011;27283;52.504;13.358;2022-12-24T06:12:35;31.95;;;15.48;;
41568;SDS011;27283;52.504;13.358;2022-12-24T06:15:08;32.13;;;15.93;;
41568;SDS011;27283;52.504;13.358;2022-12-24T06:17:48;34.80;;;15.73;;
41568;SDS011;27283;52.504;13.358;2022-12-24T06:20:20;34.45;;;16.88;;
41568;SDS011;27283;52.504;13.358;2022-12-24T06:22:55;36.75;;;16.52;;
41568;SDS011;27283;52.504;13.358;2022-12-24T06:25:27;33.92;;;15.05;;
41568;SDS011;27283;52.504;13.358;2022-12-24T06:27:58;36.65;;;15.65;;
41568;SDS011;27283;52.504;13.358;2022-12-24T06:30:31;32.03;;;14.73;;
41568;SDS011;27283;52.504;13.358;2022-12-24T06:33:02;34.35;;;16.15;;
41568;SDS011;27283;52.504;13.358;2022-12-24T06:35:35;36.30;;;15.80;;
41568;SDS011;27283;52.504;13.358;2022-12-24T06:38:09;34.72;;;15.95;;
41568;SDS011;27283;52.504;13.358;2022-12-24T06:40:42;32.20;;;15.30;;
41568;SDS011;27283;52.504;13.358;2022-12-24T06:43:15;35.92;;;16.70;;
41568;SDS011;27283;52.504;13.358;2022-12-24T06:45:48;38.53;;;16.40;;
41568;SDS011;27283;52.504;13.358;2022-12-24T06:48:20;37.00;;;17.17;;
41568;SDS011;27283;52.504;13.358;2022-12-24T06:50:52;40.03;;;17.50;;
41568;SDS011;27283;52.504;13.358;2022-12-24T06:53:27;38.75;;;17.05;;
41568;SDS011;27283;52.504;13.358;2022-12-24T06:56:00;42.80;;;17.48;;
41568;SDS011;27283;52.504;13.358;2022-12-24T06:58:32;36.65;;;17.00;;
41568;SDS011;27283;52.504;13.358;2022-12-24T07:01:08;39.55;;;16.45;;
41568;SDS011;27283;52.504;13.358;2022-12-24T07:03:41;33.58;;;16.73;;
41568;SDS011;27283;52.504;13.358;2022-12-24T07:06:14;34.63;;;15.70;;
41568;SDS011;27283;52.504;13.358;2022-12-24T07:08:52;33.33;;;15.48;;
41568;SDS011;27283;52.504;13.358;2022-12-24T07:11:24;36.78;;;15.93;;
41568;SDS011;27283;52.504;13.358;2022-12-24T07:13:57;35.58;;;15.90;;
41568;SDS011;27283;52.504;13.358;2022-12-24T07:16:29;36.10;;;16.23;;
41568;SDS011;27283;52.504;13.358;2022-12-24T07:19:01;37.95;;;16.33;;
41568;SDS011;27283;52.504;13.358;2022-12-24T07:21:34;39.47;;;17.52;;
41568;SDS011;27283;52.504;13.358;2022-12-24T07:24:09;42.20;;;17.80;;
41568;SDS011;27283;52.504;13.358;2022-12-24T07:26:41;46.55;;;18.77;;
41568;SDS011;27283;52.504;13.358;2022-12-24T07:29:13;40.58;;;18.05;;
41568;SDS011;27283;52.504;13.358;2022-12-24T07:31:46;43.83;;;18.27;;
41568;SDS011;27283;52.504;13.358;2022-12-24T07:34:18;41.38;;;17.55;;
41568;SDS011;27283;52.504;13.358;2022-12-24T07:36:50;39.22;;;16.02;;
41568;SDS011;27283;52.504;13.358;2022-12-24T07:39:25;39.00;;;17.13;;
41568;SDS011;27283;52.504;13.358;2022-12-24T07:41:58;46.72;;;18.92;;
41568;SDS011;27283;52.504;13.358;2022-12-24T07:44:30;45.97;;;18.88;;
41568;SDS011;27283;52.504;13.358;2022-12-24T07:47:02;45.90;;;18.77;;
41568;SDS011;27283;52.504;13.358;2022-12-24T07:49:35;39.80;;;17.25;;
41568;SDS011;27283;52.504;13.358;2022-12-24T07:52:07;38.13;;;16.42;;
41568;SDS011;27283;52.504;13.358;2022-12-24T07:54:44;38.63;;;18.08;;
41568;SDS011;27283;52.504;13.358;2022-12-24T07:57:16;39.50;;;17.45;;
41568;SDS011;27283;52.504;13.358;2022-12-24T07:59:48;40.83;;;17.00;;
41568;SDS011;27283;52.504;13.358;2022-12-24T08:02:21;36.13;;;15.13;;
41568;SDS011;27283;52.504;13.358;2022-12-24T08:04:53;35.78;;;16.83;;
41568;SDS011;27283;52.504;13.358;2022-12-24T08:07:26;33.58;;;16.00;;
41568;SDS011;27283;52.504;13.358;2022-12-24T08:10:00;40.03;;;17.13;;
41568;SDS011;27283;52.504;13.358;2022-12-24T08:12:33;39.13;;;17.63;;
41568;SDS011;27283;52.504;13.358;2022-12-24T08:15:05;38.50;;;17.05;;
41568;SDS011;27283;52.504;13.358;2022-12-24T08:17:38;40.35;;;17.33;;
41568;SDS011;27283;52.504;13.358;2022-12-24T08:20:10;40.50;;;17.90;;
41568;SDS011;27283;52.504;13.358;2022-12-24T08:22:43;44.03;;;18.75;;
41568;SDS011;27283;52.504;13.358;2022-12-24T08:25:18;46.58;;;19.08;;
41568;SDS011;27283;52.504;13.358;2022-12-24T08:27:51;43.50;;;18.98;;
41568;SDS011;27283;52.504;13.358;2022-12-24T08:30:23;42.92;;;19.15;;
41568;SDS011;27283;52.504;13.358;2022-12-24T08:32:56;41.97;;;18.30;;
41568;SDS011;27283;52.504;13.358;2022-12-24T08:35:28;47.08;;;19.15;;
41568;SDS011;27283;52.504;13.358;2022-12-24T08:38:01;44.67;;;18.92;;
41568;SDS011;27283;52.504;13.358;2022-12-24T08:40:35;58.53;;;21.38;;
41568;SDS011;27283;52.504;13.358;2022-12-24T08:43:08;53.22;;;20.27;;
41568;SDS011;27283;52.504;13.358;2022-12-24T08:45:40;56.47;;;21.83;;
41568;SDS011;27283;52.504;13.358;2022-12-24T08:48:13;52.25;;;20.10;;
41568;SDS011;27283;52.504;13.358;2022-12-24T08:50:51;48.53;;;19.30;;
41568;SDS011;27283;52.504;13.358;2022-12-24T08:53:24;44.92;;;19.75;;
41568;SDS011;27283;52.504;13.358;2022-12-24T08:56:03;52.10;;;20.08;;
41568;SDS011;27283;52.504;13.358;2022-12-24T08:58:37;47.25;;;20.02;;
41568;SDS011;27283;52.504;13.358;2022-12-24T09:01:10;49.78;;;18.52;;
41568;SDS011;27283;52.504;13.358;2022-12-24T09:03:44;47.20;;;18.88;;
41568;SDS011;27283;52.504;13.358;2022-12-24T09:09:03;47.63;;;18.65;;
41568;SDS011;27283;52.504;13.358;2022-12-24T09:11:38;50.92;;;20.20;;
41568;SDS011;27283;52.504;13.358;2022-12-24T09:14:11;44.13;;;18.42;;
41568;SDS011;27283;52.504;13.358;2022-12-24T09:16:43;41.78;;;18.35;;
41568;SDS011;27283;52.504;13.358;2022-12-24T09:19:15;46.65;;;19.45;;
41568;SDS011;27283;52.504;13.358;2022-12-24T09:21:47;41.13;;;18.45;;
41568;SDS011;27283;52.504;13.358;2022-12-24T09:24:42;42.53;;;19.17;;
41568;SDS011;27283;52.504;13.358;2022-12-24T09:27:17;44.50;;;20.00;;
41568;SDS011;27283;52.504;13.358;2022-12-24T09:29:50;43.55;;;20.08;;
41568;SDS011;27283;52.504;13.358;2022-12-24T09:32:23;50.42;;;20.67;;
41568;SDS011;27283;52.504;13.358;2022-12-24T09:34:55;47.20;;;19.58;;
41568;SDS011;27283;52.504;13.358;2022-12-24T09:37:27;47.85;;;20.25;;
41568;SDS011;27283;52.504;13.358;2022-12-24T09:40:00;48.67;;;21.13;;
41568;SDS011;27283;52.504;13.358;2022-12-24T09:42:38;55.13;;;22.67;;
41568;SDS011;27283;52.504;13.358;2022-12-24T09:45:18;56.17;;;22.92;;
41568;SDS011;27283;52.504;13.358;2022-12-24T09:48:00;63.00;;;24.42;;
41568;SDS011;27283;52.504;13.358;2022-12-24T09:50:37;57.60;;;23.38;;
41568;SDS011;27283;52.504;13.358;2022-12-24T09:53:15;61.97;;;24.05;;
41568;SDS011;27283;52.504;13.358;2022-12-24T09:55:55;60.30;;;23.85;;
41568;SDS011;27283;52.504;13.358;2022-12-24T09:58:33;55.75;;;23.40;;
41568;SDS011;27283;52.504;13.358;2022-12-24T10:01:10;64.47;;;23.77;;
41568;SDS011;27283;52.504;13.358;2022-12-24T10:03:44;62.15;;;24.70;;
41568;SDS011;27283;52.504;13.358;2022-12-24T10:06:18;63.22;;;24.80;;
41568;SDS011;27283;52.504;13.358;2022-12-24T10:09:00;66.72;;;25.95;;
41568;SDS011;27283;52.504;13.358;2022-12-24T10:11:42;69.25;;;25.80;;
41568;SDS011;27283;52.504;13.358;2022-12-24T10:14:33;68.35;;;25.65;;
41568;SDS011;27283;52.504;13.358;2022-12-24T10:17:19;69.15;;;24.70;;
41568;SDS011;27283;52.504;13.358;2022-12-24T10:20:21;77.35;;;26.92;;
41568;SDS011;27283;52.504;13.358;2022-12-24T10:23:15;70.80;;;25.92;;
41568;SDS011;27283;52.504;13.358;2022-12-24T10:25:59;75.10;;;25.95;;
41568;SDS011;27283;52.504;13.358;2022-12-24T10:28:41;64.35;;;24.88;;
41568;SDS011;27283;52.504;13.358;2022-12-24T10:31:22;67.18;;;24.95;;
41568;SDS011;27283;52.504;13.358;2022-12-24T10:33:58;67.38;;;25.38;;
41568;SDS011;27283;52.504;13.358;2022-12-24T10:36:32;62.25;;;23.73;;
41568;SDS011;27283;52.504;13.358;2022-12-24T10:39:07;61.28;;;23.42;;
41568;SDS011;27283;52.504;13.358;2022-12-24T10:41:47;55.65;;;21.45;;
41568;SDS011;27283;52.504;13.358;2022-12-24T10:44:23;57.28;;;20.83;;
41568;SDS011;27283;52.504;13.358;2022-12-24T10:47:01;52.15;;;20.90;;
41568;SDS011;27283;52.504;13.358;2022-12-24T10:49:37;49.95;;;19.85;;
41568;SDS011;27283;52.504;13.358;2022-12-24T10:52:20;45.70;;;19.73;;
41568;SDS011;27283;52.504;13.358;2022-12-24T10:55:20;46.55;;;19.38;;
41568;SDS011;27283;52.504;13.358;2022-12-24T10:57:56;42.50;;;18.40;;
41568;SDS011;27283;52.504;13.358;2022-12-24T11:00:32;39.50;;;17.27;;
41568;SDS011;27283;52.504;13.358;2022-12-24T11:03:22;45.58;;;18.77;;
41568;SDS011;27283;52.504;13.358;2022-12-24T11:06:04;48.08;;;18.80;;
41568;SDS011;27283;52.504;13.358;2022-12-24T11:08:42;36.65;;;16.55;;
41568;SDS011;27283;52.504;13.358;2022-12-24T11:11:15;36.83;;;16.40;;
41568;SDS011;27283;52.504;13.358;2022-12-24T11:13:52;32.85;;;15.73;;
41568;SDS011;27283;52.504;13.358;2022-12-24T11:16:27;38.40;;;16.13;;
41568;SDS011;27283;52.504;13.358;2022-12-24T11:19:04;38.47;;;15.68;;
41568;SDS011;27283;52.504;13.358;2022-12-24T11:21:46;31.98;;;15.95;;
41568;SDS011;27283;52.504;13.358;2022-12-24T11:24:22;36.97;;;16.73;;
41568;SDS011;27283;52.504;13.358;2022-12-24T11:30:12;41.08;;;16.38;;
41568;SDS011;27283;52.504;13.358;2022-12-24T11:33:17;32.95;;;14.65;;
41568;SDS011;27283;52.504;13.358;2022-12-24T11:35:53;35.55;;;15.05;;
41568;SDS011;27283;52.504;13.358;2022-12-24T11:38:31;31.77;;;14.30;;
41568;SDS011;27283;52.504;13.358;2022-12-24T11:41:06;30.23;;;14.00;;
41568;SDS011;27283;52.504;13.358;2022-12-24T11:43:41;29.55;;;14.38;;
41568;SDS011;27283;52.504;13.358;2022-12-24T11:46:17;30.42;;;13.90;;
41568;SDS011;27283;52.504;13.358;2022-12-24T11:49:15;27.98;;;13.32;;
41568;SDS011;27283;52.504;13.358;2022-12-24T11:52:01;29.65;;;13.75;;
41568;SDS011;27283;52.504;13.358;2022-12-24T11:55:04;31.73;;;14.00;;
41568;SDS011;27283;52.504;13.358;2022-12-24T11:57:49;26.27;;;12.35;;
41568;SDS011;27283;52.504;13.358;2022-12-24T12:00:28;24.27;;;12.40;;
41568;SDS011;27283;52.504;13.358;2022-12-24T12:03:00;27.42;;;12.52;;
41568;SDS011;27283;52.504;13.358;2022-12-24T12:05:34;25.48;;;12.23;;
41568;SDS011;27283;52.504;13.358;2022-12-24T12:08:13;23.73;;;11.93;;
41568;SDS011;27283;52.504;13.358;2022-12-24T12:10:48;25.80;;;12.38;;
41568;SDS011;27283;52.504;13.358;2022-12-24T12:13:25;26.40;;;12.52;;
41568;SDS011;27283;52.504;13.358;2022-12-24T12:16:09;26.90;;;12.48;;
41568;SDS011;27283;52.504;13.358;2022-12-24T12:18:52;26.83;;;11.55;;
41568;SDS011;27283;52.504;13.358;2022-12-24T12:21:29;24.60;;;11.27;;
41568;SDS011;27283;52.504;13.358;2022-12-24T12:24:12;22.48;;;11.38;;
41568;SDS011;27283;52.504;13.358;2022-12-24T12:27:12;23.75;;;10.63;;
41568;SDS011;27283;52.504;13.358;2022-12-24T12:29:55;24.00;;;11.00;;
41568;SDS011;27283;52.504;13.358;2022-12-24T12:32:35;27.33;;;10.88;;
41568;SDS011;27283;52.504;13.358;2022-12-24T12:35:19;23.98;;;10.27;;
41568;SDS011;27283;52.504;13.358;2022-12-24T12:37:56;20.65;;;9.68;;
41568;SDS011;27283;52.504;13.358;2022-12-24T12:40:44;24.27;;;10.45;;
41568;SDS011;27283;52.504;13.358;2022-12-24T12:43:36;25.55;;;10.32;;
41568;SDS011;27283;52.504;13.358;2022-12-24T12:46:26;21.50;;;10.30;;
41568;SDS011;27283;52.504;13.358;2022-12-24T12:49:11;22.10;;;9.93;;
41568;SDS011;27283;52.504;13.358;2022-12-24T12:51:56;21.63;;;10.23;;
41568;SDS011;27283;52.504;13.358;2022-12-24T12:54:37;27.75;;;10.15;;
41568;SDS011;27283;52.504;13.358;2022-12-24T12:57:23;26.15;;;10.40;;
41568;SDS011;27283;52.504;13.358;2022-12-24T13:00:03;19.60;;;9.15;;
41568;SDS011;27283;52.504;13.358;2022-12-24T13:02:50;20.60;;;8.82;;
41568;SDS011;27283;52.504;13.358;2022-12-24T13:05:57;20.27;;;8.27;;
41568;SDS011;27283;52.504;13.358;2022-12-24T13:08:40;21.05;;;8.43;;
41568;SDS011;27283;52.504;13.358;2022-12-24T13:11:34;20.13;;;8.65;;
41568;SDS011;27283;52.504;13.358;2022-12-24T13:14:30;24.65;;;9.32;;
41568;SDS011;27283;52.504;13.358;2022-12-24T13:17:21;24.05;;;8.63;;
41568;SDS011;27283;52.504;13.358;2022-12-24T13:20:25;26.83;;;8.90;;
41568;SDS011;27283;52.504;13.358;2022-12-24T13:23:01;21.10;;;7.82;;
41568;SDS011;27283;52.504;13.358;2022-12-24T13:25:45;24.58;;;8.50;;
41568;SDS011;27283;52.504;13.358;2022-12-24T13:34:05;31.80;;;8.63;;
41568;SDS011;27283;52.504;13.358;2022-12-24T13:37:18;26.08;;;8.07;;
41568;SDS011;27283;52.504;13.358;2022-12-24T13:42:51;29.05;;;8.88;;
41568;SDS011;27283;52.504;13.358;2022-12-24T13:45:43;28.90;;;9.30;;
41568;SDS011;27283;52.504;13.358;2022-12-24T13:48:28;29.48;;;10.63;;
41568;SDS011;27283;52.504;13.358;2022-12-24T13:53:56;33.97;;;9.45;;
41568;SDS011;27283;52.504;13.358;2022-12-24T13:56:30;36.92;;;9.05;;
41568;SDS011;27283;52.504;13.358;2022-12-24T13:59:24;39.30;;;9.10;;
41568;SDS011;27283;52.504;13.358;2022-12-24T14:02:14;38.38;;;7.40;;
41568;SDS011;27283;52.504;13.358;2022-12-24T14:04:50;28.30;;;7.75;;
41568;SDS011;27283;52.504;13.358;2022-12-24T14:07:27;29.00;;;7.90;;
41568;SDS011;27283;52.504;13.358;2022-12-24T14:10:00;35.97;;;8.32;;
41568;SDS011;27283;52.504;13.358;2022-12-24T14:13:52;35.53;;;8.30;;
41568;SDS011;27283;52.504;13.358;2022-12-24T14:16:40;33.10;;;8.20;;
41568;SDS011;27283;52.504;13.358;2022-12-24T14:19:21;39.53;;;8.68;;
41568;SDS011;27283;52.504;13.358;2022-12-24T14:22:12;34.42;;;8.90;;
41568;SDS011;27283;52.504;13.358;2022-12-24T14:24:54;46.20;;;8.75;;
41568;SDS011;27283;52.504;13.358;2022-12-24T14:27:31;40.03;;;8.98;;
41568;SDS011;27283;52.504;13.358;2022-12-24T14:30:15;38.58;;;9.20;;
41568;SDS011;27283;52.504;13.358;2022-12-24T14:32:50;41.45;;;8.98;;
41568;SDS011;27283;52.504;13.358;2022-12-24T14:35:24;44.55;;;8.82;;
41568;SDS011;27283;52.504;13.358;2022-12-24T14:37:59;33.20;;;9.35;;
41568;SDS011;27283;52.504;13.358;2022-12-24T14:40:41;30.15;;;9.10;;
41568;SDS011;27283;52.504;13.358;2022-12-24T14:43:24;40.58;;;9.32;;
41568;SDS011;27283;52.504;13.358;2022-12-24T14:46:05;36.08;;;9.10;;
41568;SDS011;27283;52.504;13.358;2022-12-24T14:48:47;38.20;;;9.43;;
41568;SDS011;27283;52.504;13.358;2022-12-24T14:51:26;44.88;;;10.27;;
41568;SDS011;27283;52.504;13.358;2022-12-24T14:54:11;40.67;;;9.95;;
41568;SDS011;27283;52.504;13.358;2022-12-24T14:57:17;41.83;;;9.93;;
41568;SDS011;27283;52.504;13.358;2022-12-24T15:00:15;41.42;;;10.18;;
41568;SDS011;27283;52.504;13.358;2022-12-24T15:02:50;41.55;;;10.45;;
41568;SDS011;27283;52.504;13.358;2022-12-24T15:05:23;48.53;;;9.88;;
41568;SDS011;27283;52.504;13.358;2022-12-24T15:08:00;42.75;;;9.75;;
41568;SDS011;27283;52.504;13.358;2022-12-24T15:10:35;37.65;;;9.05;;
41568;SDS011;27283;52.504;13.358;2022-12-24T15:13:14;55.15;;;9.75;;
41568;SDS011;27283;52.504;13.358;2022-12-24T15:15:54;49.80;;;9.90;;
41568;SDS011;27283;52.504;13.358;2022-12-24T15:18:28;42.10;;;9.80;;
41568;SDS011;27283;52.504;13.358;2022-12-24T15:21:04;53.40;;;10.45;;
41568;SDS011;27283;52.504;13.358;2022-12-24T15:23:43;44.45;;;9.93;;
41568;SDS011;27283;52.504;13.358;2022-12-24T15:26:20;48.20;;;10.43;;
41568;SDS011;27283;52.504;13.358;2022-12-24T15:28:58;52.33;;;10.65;;
41568;SDS011;27283;52.504;13.358;2022-12-24T15:31:31;52.03;;;12.35;;